sensor_id;sensor_type;location;lat;lon;timestamp;temperature;humidity
2893;DHT22;1456;51.840;12.184;2024-03-22T00:01:47;7.00;99.90
2893;DHT22;1456;51.840;12.184;2024-03-22T00:04:15;7.00;99.90
2893;DHT22;1456;51.840;12.184;2024-03-22T00:06:41;6.90;99.90
2893;DHT22;1456;51.840;12.184;2024-03-22T00:09:07;7.00;99.90
2893;DHT22;1456;51.840;12.184;2024-03-22T00:11:33;6.90;99.90
2893;DHT22;1456;51.840;12.184;2024-03-22T00:13:58;6.90;99.90
2893;DHT22;1456;51.840;12.184;2024-03-22T00:16:24;6.90;99.90
2893;DHT22;1456;51.840;12.184;2024-03-22T00:18:49;6.90;99.90
2893;DHT22;1456;51.840;12.184;2024-03-22T00:21:15;6.90;99.90
2893;DHT22;1456;51.840;12.184;2024-03-22T00:23:40;7.10;99.90
2893;DHT22;1456;51.840;12.184;2024-03-22T00:26:06;7.00;99.90
2893;DHT22;1456;51.840;12.184;2024-03-22T00:28:32;7.10;99.90
2893;DHT22;1456;51.840;12.184;2024-03-22T00:30:58;7.20;99.90
2893;DHT22;1456;51.840;12.184;2024-03-22T00:33:24;7.20;99.90
2893;DHT22;1456;51.840;12.184;2024-03-22T00:35:49;7.30;99.90
2893;DHT22;1456;51.840;12.184;2024-03-22T00:38:15;7.20;99.90
2893;DHT22;1456;51.840;12.184;2024-03-22T00:40:40;7.20;99.90
2893;DHT22;1456;51.840;12.184;2024-03-22T00:43:06;7.20;99.90
2893;DHT22;1456;51.840;12.184;2024-03-22T00:45:31;7.10;99.90
2893;DHT22;1456;51.840;12.184;2024-03-22T00:47:57;7.00;99.90
2893;DHT22;1456;51.840;12.184;2024-03-22T00:50:22;6.80;99.90
2893;DHT22;1456;51.840;12.184;2024-03-22T00:52:50;6.80;99.90
2893;DHT22;1456;51.840;12.184;2024-03-22T00:55:15;6.90;99.90
2893;DHT22;1456;51.840;12.184;2024-03-22T00:57:41;6.80;99.90
2893;DHT22;1456;51.840;12.184;2024-03-22T01:00:06;6.90;99.90
2893;DHT22;1456;51.840;12.184;2024-03-22T01:02:32;6.80;99.90
2893;DHT22;1456;51.840;12.184;2024-03-22T01:04:58;7.00;99.90
2893;DHT22;1456;51.840;12.184;2024-03-22T01:07:23;6.90;99.90
2893;DHT22;1456;51.840;12.184;2024-03-22T01:09:49;7.00;99.90
2893;DHT22;1456;51.840;12.184;2024-03-22T01:12:15;7.10;99.90
2893;DHT22;1456;51.840;12.184;2024-03-22T01:14:40;6.90;99.90
2893;DHT22;1456;51.840;12.184;2024-03-22T01:17:05;6.90;99.90
2893;DHT22;1456;51.840;12.184;2024-03-22T01:19:31;6.80;99.90
2893;DHT22;1456;51.840;12.184;2024-03-22T01:21:56;6.80;99.90
2893;DHT22;1456;51.840;12.184;2024-03-22T01:24:22;6.80;99.90
2893;DHT22;1456;51.840;12.184;2024-03-22T01:26:47;6.80;99.90
2893;DHT22;1456;51.840;12.184;2024-03-22T01:29:13;6.80;99.90
2893;DHT22;1456;51.840;12.184;2024-03-22T01:31:39;6.70;99.90
2893;DHT22;1456;51.840;12.184;2024-03-22T01:34:04;6.60;99.90
2893;DHT22;1456;51.840;12.184;2024-03-22T01:36:30;6.50;99.90
2893;DHT22;1456;51.840;12.184;2024-03-22T01:38:56;6.40;99.90
2893;DHT22;1456;51.840;12.184;2024-03-22T01:41:21;6.30;99.90
2893;DHT22;1456;51.840;12.184;2024-03-22T01:43:47;6.20;99.90
2893;DHT22;1456;51.840;12.184;2024-03-22T01:46:12;6.20;99.90
2893;DHT22;1456;51.840;12.184;2024-03-22T01:48:38;6.20;99.90
2893;DHT22;1456;51.840;12.184;2024-03-22T01:51:04;6.40;99.90
2893;DHT22;1456;51.840;12.184;2024-03-22T01:53:30;6.30;99.90
2893;DHT22;1456;51.840;12.184;2024-03-22T01:55:55;6.40;99.90
2893;DHT22;1456;51.840;12.184;2024-03-22T01:58:21;6.40;99.90
2893;DHT22;1456;51.840;12.184;2024-03-22T02:00:47;6.60;99.90
2893;DHT22;1456;51.840;12.184;2024-03-22T02:03:12;6.80;99.90
2893;DHT22;1456;51.840;12.184;2024-03-22T02:05:38;7.10;99.90
2893;DHT22;1456;51.840;12.184;2024-03-22T02:08:04;7.10;99.90
2893;DHT22;1456;51.840;12.184;2024-03-22T02:10:29;7.10;99.90
2893;DHT22;1456;51.840;12.184;2024-03-22T02:12:55;7.30;99.90
2893;DHT22;1456;51.840;12.184;2024-03-22T02:15:20;7.40;99.90
2893;DHT22;1456;51.840;12.184;2024-03-22T02:17:46;7.50;99.90
2893;DHT22;1456;51.840;12.184;2024-03-22T02:20:11;7.50;99.90
2893;DHT22;1456;51.840;12.184;2024-03-22T02:22:37;7.60;99.90
2893;DHT22;1456;51.840;12.184;2024-03-22T02:25:03;7.60;99.90
2893;DHT22;1456;51.840;12.184;2024-03-22T02:27:29;7.50;99.90
2893;DHT22;1456;51.840;12.184;2024-03-22T02:29:54;7.50;99.90
2893;DHT22;1456;51.840;12.184;2024-03-22T02:32:20;7.40;99.90
2893;DHT22;1456;51.840;12.184;2024-03-22T02:34:45;7.50;99.90
2893;DHT22;1456;51.840;12.184;2024-03-22T02:37:11;7.50;99.90
2893;DHT22;1456;51.840;12.184;2024-03-22T02:39:36;7.60;99.90
2893;DHT22;1456;51.840;12.184;2024-03-22T02:42:02;7.60;99.90
2893;DHT22;1456;51.840;12.184;2024-03-22T02:44:27;7.60;99.90
2893;DHT22;1456;51.840;12.184;2024-03-22T02:46:52;7.70;99.90
2893;DHT22;1456;51.840;12.184;2024-03-22T02:49:18;7.90;99.90
2893;DHT22;1456;51.840;12.184;2024-03-22T02:51:44;8.00;99.90
2893;DHT22;1456;51.840;12.184;2024-03-22T02:54:09;8.10;99.90
2893;DHT22;1456;51.840;12.184;2024-03-22T02:56:35;8.20;99.90
2893;DHT22;1456;51.840;12.184;2024-03-22T02:59:00;8.20;99.90
2893;DHT22;1456;51.840;12.184;2024-03-22T03:01:25;8.30;99.90
2893;DHT22;1456;51.840;12.184;2024-03-22T03:03:51;8.40;99.90
2893;DHT22;1456;51.840;12.184;2024-03-22T03:06:16;8.30;99.90
2893;DHT22;1456;51.840;12.184;2024-03-22T03:08:45;8.20;99.90
2893;DHT22;1456;51.840;12.184;2024-03-22T03:11:10;8.30;99.90
2893;DHT22;1456;51.840;12.184;2024-03-22T03:13:36;8.30;99.90
2893;DHT22;1456;51.840;12.184;2024-03-22T03:16:02;8.40;99.90
2893;DHT22;1456;51.840;12.184;2024-03-22T03:18:27;8.40;99.90
2893;DHT22;1456;51.840;12.184;2024-03-22T03:20:53;8.40;99.90
2893;DHT22;1456;51.840;12.184;2024-03-22T03:23:18;8.50;99.90
2893;DHT22;1456;51.840;12.184;2024-03-22T03:25:44;8.50;99.90
2893;DHT22;1456;51.840;12.184;2024-03-22T03:28:09;8.60;99.90
2893;DHT22;1456;51.840;12.184;2024-03-22T03:30:35;8.50;99.90
2893;DHT22;1456;51.840;12.184;2024-03-22T03:33:00;8.50;99.90
2893;DHT22;1456;51.840;12.184;2024-03-22T03:35:26;8.50;99.90
2893;DHT22;1456;51.840;12.184;2024-03-22T03:37:52;8.40;99.90
2893;DHT22;1456;51.840;12.184;2024-03-22T03:40:18;8.30;99.90
2893;DHT22;1456;51.840;12.184;2024-03-22T03:42:43;8.10;99.90
2893;DHT22;1456;51.840;12.184;2024-03-22T03:45:09;8.00;99.90
2893;DHT22;1456;51.840;12.184;2024-03-22T03:47:34;8.00;99.90
2893;DHT22;1456;51.840;12.184;2024-03-22T03:50:00;7.70;99.90
2893;DHT22;1456;51.840;12.184;2024-03-22T03:52:25;7.70;99.90
2893;DHT22;1456;51.840;12.184;2024-03-22T03:54:51;7.60;99.90
2893;DHT22;1456;51.840;12.184;2024-03-22T03:57:16;7.70;99.90
2893;DHT22;1456;51.840;12.184;2024-03-22T03:59:42;7.70;99.90
2893;DHT22;1456;51.840;12.184;2024-03-22T04:02:07;7.70;99.90
2893;DHT22;1456;51.840;12.184;2024-03-22T04:04:33;7.80;99.90
2893;DHT22;1456;51.840;12.184;2024-03-22T04:06:58;7.70;99.90
2893;DHT22;1456;51.840;12.184;2024-03-22T04:09:24;7.70;99.90
2893;DHT22;1456;51.840;12.184;2024-03-22T04:11:49;7.60;99.90
2893;DHT22;1456;51.840;12.184;2024-03-22T04:14:15;7.50;99.90
2893;DHT22;1456;51.840;12.184;2024-03-22T04:16:40;7.50;99.90
2893;DHT22;1456;51.840;12.184;2024-03-22T04:19:06;7.50;99.90
2893;DHT22;1456;51.840;12.184;2024-03-22T04:21:31;7.50;99.90
2893;DHT22;1456;51.840;12.184;2024-03-22T04:23:57;7.50;99.90
2893;DHT22;1456;51.840;12.184;2024-03-22T04:26:22;7.60;99.90
2893;DHT22;1456;51.840;12.184;2024-03-22T04:28:48;7.60;99.90
2893;DHT22;1456;51.840;12.184;2024-03-22T04:31:14;7.70;99.90
2893;DHT22;1456;51.840;12.184;2024-03-22T04:33:39;7.70;99.90
2893;DHT22;1456;51.840;12.184;2024-03-22T04:36:05;7.80;99.90
2893;DHT22;1456;51.840;12.184;2024-03-22T04:38:31;7.80;99.90
2893;DHT22;1456;51.840;12.184;2024-03-22T04:40:57;7.90;99.90
2893;DHT22;1456;51.840;12.184;2024-03-22T04:43:23;7.80;99.90
2893;DHT22;1456;51.840;12.184;2024-03-22T04:45:49;7.70;99.90
2893;DHT22;1456;51.840;12.184;2024-03-22T04:48:22;7.70;99.90
2893;DHT22;1456;51.840;12.184;2024-03-22T04:50:48;7.80;99.90
2893;DHT22;1456;51.840;12.184;2024-03-22T04:53:18;7.80;99.90
2893;DHT22;1456;51.840;12.184;2024-03-22T04:55:44;7.70;99.90
2893;DHT22;1456;51.840;12.184;2024-03-22T04:58:13;7.60;99.90
2893;DHT22;1456;51.840;12.184;2024-03-22T05:00:39;7.70;99.90
2893;DHT22;1456;51.840;12.184;2024-03-22T05:03:05;7.80;99.90
2893;DHT22;1456;51.840;12.184;2024-03-22T05:05:30;7.80;99.90
2893;DHT22;1456;51.840;12.184;2024-03-22T05:07:56;7.80;99.90
2893;DHT22;1456;51.840;12.184;2024-03-22T05:10:22;7.80;99.90
2893;DHT22;1456;51.840;12.184;2024-03-22T05:12:47;7.60;99.90
2893;DHT22;1456;51.840;12.184;2024-03-22T05:15:13;7.50;99.90
2893;DHT22;1456;51.840;12.184;2024-03-22T05:17:38;7.50;99.90
2893;DHT22;1456;51.840;12.184;2024-03-22T05:20:05;7.50;99.90
2893;DHT22;1456;51.840;12.184;2024-03-22T05:22:31;7.50;99.90
2893;DHT22;1456;51.840;12.184;2024-03-22T05:24:56;7.60;99.90
2893;DHT22;1456;51.840;12.184;2024-03-22T05:27:22;7.70;99.90
2893;DHT22;1456;51.840;12.184;2024-03-22T05:29:47;7.60;99.90
2893;DHT22;1456;51.840;12.184;2024-03-22T05:32:13;7.70;99.90
2893;DHT22;1456;51.840;12.184;2024-03-22T05:34:38;7.50;99.90
2893;DHT22;1456;51.840;12.184;2024-03-22T05:37:04;7.60;99.90
2893;DHT22;1456;51.840;12.184;2024-03-22T05:39:29;7.60;99.90
2893;DHT22;1456;51.840;12.184;2024-03-22T05:41:55;7.70;99.90
2893;DHT22;1456;51.840;12.184;2024-03-22T05:44:23;7.70;99.90
2893;DHT22;1456;51.840;12.184;2024-03-22T05:46:49;7.70;99.90
2893;DHT22;1456;51.840;12.184;2024-03-22T05:49:15;7.70;99.90
2893;DHT22;1456;51.840;12.184;2024-03-22T05:51:40;8.00;99.90
2893;DHT22;1456;51.840;12.184;2024-03-22T05:54:06;7.90;99.90
2893;DHT22;1456;51.840;12.184;2024-03-22T05:56:31;8.00;99.90
2893;DHT22;1456;51.840;12.184;2024-03-22T05:58:57;8.00;99.90
2893;DHT22;1456;51.840;12.184;2024-03-22T06:01:22;7.90;99.90
2893;DHT22;1456;51.840;12.184;2024-03-22T06:03:48;8.00;99.90
2893;DHT22;1456;51.840;12.184;2024-03-22T06:06:13;8.10;99.90
2893;DHT22;1456;51.840;12.184;2024-03-22T06:08:39;8.10;99.90
2893;DHT22;1456;51.840;12.184;2024-03-22T06:11:06;8.10;99.90
2893;DHT22;1456;51.840;12.184;2024-03-22T06:13:32;8.20;99.90
2893;DHT22;1456;51.840;12.184;2024-03-22T06:15:58;8.20;99.90
2893;DHT22;1456;51.840;12.184;2024-03-22T06:18:24;8.20;99.90
2893;DHT22;1456;51.840;12.184;2024-03-22T06:20:49;8.20;99.90
2893;DHT22;1456;51.840;12.184;2024-03-22T06:23:15;8.20;99.90
2893;DHT22;1456;51.840;12.184;2024-03-22T06:25:40;8.20;99.90
2893;DHT22;1456;51.840;12.184;2024-03-22T06:28:06;8.40;99.90
2893;DHT22;1456;51.840;12.184;2024-03-22T06:30:31;8.50;99.90
2893;DHT22;1456;51.840;12.184;2024-03-22T06:32:56;8.60;99.90
2893;DHT22;1456;51.840;12.184;2024-03-22T06:35:22;8.60;99.90
2893;DHT22;1456;51.840;12.184;2024-03-22T06:37:47;8.80;99.90
2893;DHT22;1456;51.840;12.184;2024-03-22T06:40:14;8.80;99.90
2893;DHT22;1456;51.840;12.184;2024-03-22T06:42:39;8.80;99.90
2893;DHT22;1456;51.840;12.184;2024-03-22T06:45:05;8.80;99.90
2893;DHT22;1456;51.840;12.184;2024-03-22T06:47:31;8.80;99.90
2893;DHT22;1456;51.840;12.184;2024-03-22T06:49:56;8.90;99.90
2893;DHT22;1456;51.840;12.184;2024-03-22T06:52:23;9.00;99.90
2893;DHT22;1456;51.840;12.184;2024-03-22T06:54:48;9.00;99.90
2893;DHT22;1456;51.840;12.184;2024-03-22T06:57:14;9.00;99.90
2893;DHT22;1456;51.840;12.184;2024-03-22T06:59:39;9.00;99.90
2893;DHT22;1456;51.840;12.184;2024-03-22T07:02:05;9.10;99.90
2893;DHT22;1456;51.840;12.184;2024-03-22T07:04:30;9.10;99.90
2893;DHT22;1456;51.840;12.184;2024-03-22T07:06:56;9.10;99.90
2893;DHT22;1456;51.840;12.184;2024-03-22T07:09:21;9.20;99.90
2893;DHT22;1456;51.840;12.184;2024-03-22T07:11:47;9.30;99.90
2893;DHT22;1456;51.840;12.184;2024-03-22T07:14:12;9.40;99.90
2893;DHT22;1456;51.840;12.184;2024-03-22T07:16:38;9.50;99.90
2893;DHT22;1456;51.840;12.184;2024-03-22T07:19:03;9.50;99.90
2893;DHT22;1456;51.840;12.184;2024-03-22T07:21:29;9.60;99.90
2893;DHT22;1456;51.840;12.184;2024-03-22T07:23:55;9.80;99.90
2893;DHT22;1456;51.840;12.184;2024-03-22T07:26:20;9.80;99.90
2893;DHT22;1456;51.840;12.184;2024-03-22T07:28:46;9.80;99.90
2893;DHT22;1456;51.840;12.184;2024-03-22T07:31:11;9.80;99.90
2893;DHT22;1456;51.840;12.184;2024-03-22T07:33:37;9.80;99.90
2893;DHT22;1456;51.840;12.184;2024-03-22T07:36:04;9.70;99.90
2893;DHT22;1456;51.840;12.184;2024-03-22T07:38:30;9.90;99.90
2893;DHT22;1456;51.840;12.184;2024-03-22T07:40:55;9.90;99.90
2893;DHT22;1456;51.840;12.184;2024-03-22T07:43:21;10.20;99.90
2893;DHT22;1456;51.840;12.184;2024-03-22T07:45:46;10.30;99.90
2893;DHT22;1456;51.840;12.184;2024-03-22T07:48:18;10.50;99.90
2893;DHT22;1456;51.840;12.184;2024-03-22T07:50:43;10.80;99.90
2893;DHT22;1456;51.840;12.184;2024-03-22T07:53:09;11.10;99.90
2893;DHT22;1456;51.840;12.184;2024-03-22T07:55:34;11.10;99.90
2893;DHT22;1456;51.840;12.184;2024-03-22T07:58:00;10.90;99.90
2893;DHT22;1456;51.840;12.184;2024-03-22T08:00:26;10.80;99.90
2893;DHT22;1456;51.840;12.184;2024-03-22T08:02:51;10.80;99.90
2893;DHT22;1456;51.840;12.184;2024-03-22T08:05:17;10.90;99.90
2893;DHT22;1456;51.840;12.184;2024-03-22T08:07:43;10.90;99.90
2893;DHT22;1456;51.840;12.184;2024-03-22T08:10:11;10.80;99.90
2893;DHT22;1456;51.840;12.184;2024-03-22T08:12:36;10.70;99.90
2893;DHT22;1456;51.840;12.184;2024-03-22T08:15:02;10.50;99.90
2893;DHT22;1456;51.840;12.184;2024-03-22T08:17:28;10.50;99.90
2893;DHT22;1456;51.840;12.184;2024-03-22T08:19:53;10.60;99.90
2893;DHT22;1456;51.840;12.184;2024-03-22T08:22:19;10.70;99.90
2893;DHT22;1456;51.840;12.184;2024-03-22T08:24:44;10.70;99.90
2893;DHT22;1456;51.840;12.184;2024-03-22T08:27:10;10.70;99.90
2893;DHT22;1456;51.840;12.184;2024-03-22T08:29:35;10.80;99.90
2893;DHT22;1456;51.840;12.184;2024-03-22T08:32:01;11.00;99.90
2893;DHT22;1456;51.840;12.184;2024-03-22T08:34:30;11.10;99.90
2893;DHT22;1456;51.840;12.184;2024-03-22T08:36:55;11.40;99.90
2893;DHT22;1456;51.840;12.184;2024-03-22T08:39:21;11.50;99.90
2893;DHT22;1456;51.840;12.184;2024-03-22T08:41:46;11.80;99.90
2893;DHT22;1456;51.840;12.184;2024-03-22T08:44:12;12.00;99.90
2893;DHT22;1456;51.840;12.184;2024-03-22T08:46:37;12.10;99.90
2893;DHT22;1456;51.840;12.184;2024-03-22T08:49:03;12.00;99.90
2893;DHT22;1456;51.840;12.184;2024-03-22T08:51:28;11.80;99.90
2893;DHT22;1456;51.840;12.184;2024-03-22T08:53:54;11.80;99.90
2893;DHT22;1456;51.840;12.184;2024-03-22T08:56:20;11.70;99.90
2893;DHT22;1456;51.840;12.184;2024-03-22T08:58:46;11.70;99.90
2893;DHT22;1456;51.840;12.184;2024-03-22T09:01:11;11.60;99.90
2893;DHT22;1456;51.840;12.184;2024-03-22T09:03:36;11.50;99.90
2893;DHT22;1456;51.840;12.184;2024-03-22T09:06:02;11.60;99.90
2893;DHT22;1456;51.840;12.184;2024-03-22T09:08:28;11.70;99.90
2893;DHT22;1456;51.840;12.184;2024-03-22T09:10:54;11.80;99.90
2893;DHT22;1456;51.840;12.184;2024-03-22T09:13:20;12.00;99.90
2893;DHT22;1456;51.840;12.184;2024-03-22T09:15:45;12.10;99.90
2893;DHT22;1456;51.840;12.184;2024-03-22T09:18:11;12.10;99.90
2893;DHT22;1456;51.840;12.184;2024-03-22T09:20:36;12.10;99.90
2893;DHT22;1456;51.840;12.184;2024-03-22T09:23:02;12.20;99.90
2893;DHT22;1456;51.840;12.184;2024-03-22T09:25:29;12.30;99.90
2893;DHT22;1456;51.840;12.184;2024-03-22T09:27:54;12.50;99.90
2893;DHT22;1456;51.840;12.184;2024-03-22T09:30:20;12.80;99.90
2893;DHT22;1456;51.840;12.184;2024-03-22T09:32:45;13.00;99.90
2893;DHT22;1456;51.840;12.184;2024-03-22T09:35:11;13.10;99.90
2893;DHT22;1456;51.840;12.184;2024-03-22T09:37:40;13.40;99.90
2893;DHT22;1456;51.840;12.184;2024-03-22T09:40:05;13.80;99.90
2893;DHT22;1456;51.840;12.184;2024-03-22T09:42:33;14.00;99.90
2893;DHT22;1456;51.840;12.184;2024-03-22T09:44:58;14.30;99.90
2893;DHT22;1456;51.840;12.184;2024-03-22T09:47:24;14.70;99.90
2893;DHT22;1456;51.840;12.184;2024-03-22T09:49:50;14.60;99.90
2893;DHT22;1456;51.840;12.184;2024-03-22T09:52:19;14.20;99.90
2893;DHT22;1456;51.840;12.184;2024-03-22T09:54:45;14.00;99.90
2893;DHT22;1456;51.840;12.184;2024-03-22T09:57:14;13.80;99.90
2893;DHT22;1456;51.840;12.184;2024-03-22T09:59:43;13.70;99.90
2893;DHT22;1456;51.840;12.184;2024-03-22T10:02:13;13.50;99.90
2893;DHT22;1456;51.840;12.184;2024-03-22T10:04:41;13.60;99.90
2893;DHT22;1456;51.840;12.184;2024-03-22T10:07:07;13.60;99.90
2893;DHT22;1456;51.840;12.184;2024-03-22T10:09:36;13.90;99.90
2893;DHT22;1456;51.840;12.184;2024-03-22T10:12:02;14.10;99.90
2893;DHT22;1456;51.840;12.184;2024-03-22T10:14:29;14.30;99.90
2893;DHT22;1456;51.840;12.184;2024-03-22T10:16:54;14.40;99.90
2893;DHT22;1456;51.840;12.184;2024-03-22T10:19:20;14.50;99.90
2893;DHT22;1456;51.840;12.184;2024-03-22T10:21:46;14.70;99.90
2893;DHT22;1456;51.840;12.184;2024-03-22T10:24:12;14.70;99.90
2893;DHT22;1456;51.840;12.184;2024-03-22T10:26:37;14.70;99.90
2893;DHT22;1456;51.840;12.184;2024-03-22T10:29:05;14.80;99.90
2893;DHT22;1456;51.840;12.184;2024-03-22T10:31:31;14.90;99.90
2893;DHT22;1456;51.840;12.184;2024-03-22T10:33:56;14.90;99.90
2893;DHT22;1456;51.840;12.184;2024-03-22T10:36:23;14.90;99.90
2893;DHT22;1456;51.840;12.184;2024-03-22T10:38:48;15.30;99.90
2893;DHT22;1456;51.840;12.184;2024-03-22T10:41:16;15.50;99.90
2893;DHT22;1456;51.840;12.184;2024-03-22T10:43:42;15.70;99.90
2893;DHT22;1456;51.840;12.184;2024-03-22T10:46:07;15.80;99.90
2893;DHT22;1456;51.840;12.184;2024-03-22T10:48:33;15.80;99.90
2893;DHT22;1456;51.840;12.184;2024-03-22T10:50:59;16.10;99.90
2893;DHT22;1456;51.840;12.184;2024-03-22T10:53:26;16.10;99.90
2893;DHT22;1456;51.840;12.184;2024-03-22T10:55:52;16.00;99.90
2893;DHT22;1456;51.840;12.184;2024-03-22T10:58:22;16.10;99.90
2893;DHT22;1456;51.840;12.184;2024-03-22T11:00:51;16.20;99.90
2893;DHT22;1456;51.840;12.184;2024-03-22T11:03:19;16.00;99.90
2893;DHT22;1456;51.840;12.184;2024-03-22T11:05:48;15.70;99.90
2893;DHT22;1456;51.840;12.184;2024-03-22T11:08:22;15.40;99.90
2893;DHT22;1456;51.840;12.184;2024-03-22T11:10:48;15.30;99.90
2893;DHT22;1456;51.840;12.184;2024-03-22T11:13:15;15.20;99.90
2893;DHT22;1456;51.840;12.184;2024-03-22T11:15:41;15.00;99.90
2893;DHT22;1456;51.840;12.184;2024-03-22T11:18:07;14.70;99.90
2893;DHT22;1456;51.840;12.184;2024-03-22T11:20:32;14.60;99.90
2893;DHT22;1456;51.840;12.184;2024-03-22T11:23:01;14.60;99.90
2893;DHT22;1456;51.840;12.184;2024-03-22T11:25:26;14.50;99.90
2893;DHT22;1456;51.840;12.184;2024-03-22T11:27:52;14.40;99.90
2893;DHT22;1456;51.840;12.184;2024-03-22T11:30:19;14.40;99.90
2893;DHT22;1456;51.840;12.184;2024-03-22T11:32:45;14.40;99.90
2893;DHT22;1456;51.840;12.184;2024-03-22T11:35:11;14.40;99.90
2893;DHT22;1456;51.840;12.184;2024-03-22T11:37:38;14.40;99.90
2893;DHT22;1456;51.840;12.184;2024-03-22T11:40:03;14.40;99.90
2893;DHT22;1456;51.840;12.184;2024-03-22T11:42:32;14.30;99.90
2893;DHT22;1456;51.840;12.184;2024-03-22T11:44:58;14.30;99.90
2893;DHT22;1456;51.840;12.184;2024-03-22T11:47:24;14.40;99.90
2893;DHT22;1456;51.840;12.184;2024-03-22T11:49:50;14.50;99.90
2893;DHT22;1456;51.840;12.184;2024-03-22T11:52:15;14.40;99.90
2893;DHT22;1456;51.840;12.184;2024-03-22T11:54:41;14.30;99.90
2893;DHT22;1456;51.840;12.184;2024-03-22T11:57:07;14.20;99.90
2893;DHT22;1456;51.840;12.184;2024-03-22T11:59:33;14.20;99.90
2893;DHT22;1456;51.840;12.184;2024-03-22T12:01:59;14.20;99.90
2893;DHT22;1456;51.840;12.184;2024-03-22T12:04:25;14.40;99.90
2893;DHT22;1456;51.840;12.184;2024-03-22T12:06:50;14.50;99.90
2893;DHT22;1456;51.840;12.184;2024-03-22T12:09:16;14.40;99.90
2893;DHT22;1456;51.840;12.184;2024-03-22T12:11:41;14.40;99.90
2893;DHT22;1456;51.840;12.184;2024-03-22T12:14:06;14.40;99.90
2893;DHT22;1456;51.840;12.184;2024-03-22T12:16:32;14.50;99.90
2893;DHT22;1456;51.840;12.184;2024-03-22T12:18:58;14.50;99.90
2893;DHT22;1456;51.840;12.184;2024-03-22T12:21:23;14.70;99.90
2893;DHT22;1456;51.840;12.184;2024-03-22T12:23:49;14.80;99.90
2893;DHT22;1456;51.840;12.184;2024-03-22T12:26:15;14.80;99.90
2893;DHT22;1456;51.840;12.184;2024-03-22T12:28:40;14.80;99.90
2893;DHT22;1456;51.840;12.184;2024-03-22T12:31:07;14.80;99.90
2893;DHT22;1456;51.840;12.184;2024-03-22T12:33:33;14.90;99.90
2893;DHT22;1456;51.840;12.184;2024-03-22T12:35:58;14.90;99.90
2893;DHT22;1456;51.840;12.184;2024-03-22T12:38:24;14.80;99.90
2893;DHT22;1456;51.840;12.184;2024-03-22T12:40:49;15.00;99.90
2893;DHT22;1456;51.840;12.184;2024-03-22T12:43:15;15.10;99.90
2893;DHT22;1456;51.840;12.184;2024-03-22T12:45:40;14.90;99.90
2893;DHT22;1456;51.840;12.184;2024-03-22T12:48:06;14.80;99.90
2893;DHT22;1456;51.840;12.184;2024-03-22T12:50:31;14.80;99.90
2893;DHT22;1456;51.840;12.184;2024-03-22T12:52:58;14.80;99.90
2893;DHT22;1456;51.840;12.184;2024-03-22T12:55:24;14.70;99.90
2893;DHT22;1456;51.840;12.184;2024-03-22T12:57:51;14.80;99.90
2893;DHT22;1456;51.840;12.184;2024-03-22T13:00:16;14.80;99.90
2893;DHT22;1456;51.840;12.184;2024-03-22T13:02:46;14.80;99.90
2893;DHT22;1456;51.840;12.184;2024-03-22T13:05:12;14.80;99.90
2893;DHT22;1456;51.840;12.184;2024-03-22T13:07:38;14.80;99.90
2893;DHT22;1456;51.840;12.184;2024-03-22T13:10:04;14.90;99.90
2893;DHT22;1456;51.840;12.184;2024-03-22T13:12:30;14.80;99.90
2893;DHT22;1456;51.840;12.184;2024-03-22T13:14:56;14.70;99.90
2893;DHT22;1456;51.840;12.184;2024-03-22T13:17:22;14.60;99.90
2893;DHT22;1456;51.840;12.184;2024-03-22T13:19:49;14.60;99.90
2893;DHT22;1456;51.840;12.184;2024-03-22T13:22:14;14.40;99.90
2893;DHT22;1456;51.840;12.184;2024-03-22T13:24:44;14.30;99.90
2893;DHT22;1456;51.840;12.184;2024-03-22T13:27:09;14.10;99.90
2893;DHT22;1456;51.840;12.184;2024-03-22T13:29:35;14.10;99.90
2893;DHT22;1456;51.840;12.184;2024-03-22T13:32:00;14.20;99.90
2893;DHT22;1456;51.840;12.184;2024-03-22T13:34:26;14.30;99.90
2893;DHT22;1456;51.840;12.184;2024-03-22T13:36:52;14.60;99.90
2893;DHT22;1456;51.840;12.184;2024-03-22T13:39:17;14.80;99.90
2893;DHT22;1456;51.840;12.184;2024-03-22T13:41:42;15.00;99.90
2893;DHT22;1456;51.840;12.184;2024-03-22T13:44:08;15.10;99.90
2893;DHT22;1456;51.840;12.184;2024-03-22T13:46:34;14.80;99.90
2893;DHT22;1456;51.840;12.184;2024-03-22T13:49:03;14.80;99.90
2893;DHT22;1456;51.840;12.184;2024-03-22T13:51:29;14.70;99.90
2893;DHT22;1456;51.840;12.184;2024-03-22T13:53:56;14.70;99.90
2893;DHT22;1456;51.840;12.184;2024-03-22T13:56:22;14.70;99.90
2893;DHT22;1456;51.840;12.184;2024-03-22T13:58:48;14.70;99.90
2893;DHT22;1456;51.840;12.184;2024-03-22T14:01:14;14.70;99.90
2893;DHT22;1456;51.840;12.184;2024-03-22T14:03:40;14.60;99.90
2893;DHT22;1456;51.840;12.184;2024-03-22T14:06:05;14.40;99.90
2893;DHT22;1456;51.840;12.184;2024-03-22T14:08:31;14.20;99.90
2893;DHT22;1456;51.840;12.184;2024-03-22T14:10:56;14.10;99.90
2893;DHT22;1456;51.840;12.184;2024-03-22T14:13:22;14.00;99.90
2893;DHT22;1456;51.840;12.184;2024-03-22T14:15:48;13.80;99.90
2893;DHT22;1456;51.840;12.184;2024-03-22T14:18:13;13.60;99.90
2893;DHT22;1456;51.840;12.184;2024-03-22T14:20:39;13.50;99.90
2893;DHT22;1456;51.840;12.184;2024-03-22T14:23:04;13.30;99.90
2893;DHT22;1456;51.840;12.184;2024-03-22T14:25:32;13.30;99.90
2893;DHT22;1456;51.840;12.184;2024-03-22T14:27:57;13.20;99.90
2893;DHT22;1456;51.840;12.184;2024-03-22T14:30:23;13.00;99.90
2893;DHT22;1456;51.840;12.184;2024-03-22T14:32:50;13.00;99.90
2893;DHT22;1456;51.840;12.184;2024-03-22T14:35:16;13.00;99.90
2893;DHT22;1456;51.840;12.184;2024-03-22T14:37:41;12.90;99.90
2893;DHT22;1456;51.840;12.184;2024-03-22T14:40:07;13.00;99.90
2893;DHT22;1456;51.840;12.184;2024-03-22T14:42:36;13.00;99.90
2893;DHT22;1456;51.840;12.184;2024-03-22T14:45:02;13.00;99.90
2893;DHT22;1456;51.840;12.184;2024-03-22T14:47:28;13.00;99.90
2893;DHT22;1456;51.840;12.184;2024-03-22T14:49:53;13.00;99.90
2893;DHT22;1456;51.840;12.184;2024-03-22T14:52:19;12.90;99.90
2893;DHT22;1456;51.840;12.184;2024-03-22T14:54:47;12.90;99.90
2893;DHT22;1456;51.840;12.184;2024-03-22T14:57:12;12.90;99.90
2893;DHT22;1456;51.840;12.184;2024-03-22T14:59:38;12.80;99.90
2893;DHT22;1456;51.840;12.184;2024-03-22T15:02:03;12.80;99.90
2893;DHT22;1456;51.840;12.184;2024-03-22T15:04:29;12.70;99.90
2893;DHT22;1456;51.840;12.184;2024-03-22T15:06:54;12.70;99.90
2893;DHT22;1456;51.840;12.184;2024-03-22T15:09:20;12.70;99.90
2893;DHT22;1456;51.840;12.184;2024-03-22T15:11:46;12.70;99.90
2893;DHT22;1456;51.840;12.184;2024-03-22T15:14:12;12.70;99.90
2893;DHT22;1456;51.840;12.184;2024-03-22T15:16:38;12.70;99.90
2893;DHT22;1456;51.840;12.184;2024-03-22T15:19:03;12.70;99.90
2893;DHT22;1456;51.840;12.184;2024-03-22T15:21:29;12.70;99.90
2893;DHT22;1456;51.840;12.184;2024-03-22T15:23:54;12.70;99.90
2893;DHT22;1456;51.840;12.184;2024-03-22T15:26:20;12.70;99.90
2893;DHT22;1456;51.840;12.184;2024-03-22T15:28:46;12.70;99.90
2893;DHT22;1456;51.840;12.184;2024-03-22T15:31:13;12.80;99.90
2893;DHT22;1456;51.840;12.184;2024-03-22T15:33:39;12.80;99.90
2893;DHT22;1456;51.840;12.184;2024-03-22T15:36:04;12.70;99.90
2893;DHT22;1456;51.840;12.184;2024-03-22T15:38:30;12.70;99.90
2893;DHT22;1456;51.840;12.184;2024-03-22T15:40:55;12.60;99.90
2893;DHT22;1456;51.840;12.184;2024-03-22T15:43:21;12.60;99.90
2893;DHT22;1456;51.840;12.184;2024-03-22T15:45:46;12.60;99.90